Terminal Aerodrome Forecast
Issued by NWS Omaha/Valley, NE

Home | Current Version | Previous Version | Text Only | Print | Product List | Glossary On
Versions: 1 2 3 4 5 6 7 8 9 10 11 12 13 14 15 16 17 18 19 20
000
FTUS43 KOAX 242320
TAFOMA
TAF
KOMA 242320Z 2500/2524 02005KT P6SM VCSH SCT100 BKN150
     FM250200 02005KT P6SM SCT100 SCT250
     FM250400 VRB04KT P6SM SCT250
     FM251600 12005KT P6SM FEW250=

USA.gov is the U.S. government's official web portal to all federal, state and local government web resources and services.